Time;durP1;ratioP1;P1;durP2;ratioP2;P2;SDS_P1;SDS_P2;PMS_P1;PMS_P2;Temp;Humidity;BMP_temperature;BMP_pressure;BME280_temperature;BME280_humidity;BME280_pressure;Samples;Min_cycle;Max_cycle;Signal;HPM_P1;HPM_P2
2022/06/13 00:01:55;;;;;;;12.25;5.40;;;;;;;;;;5057566;28;20080;-68
2022/06/13 00:04:22;;;;;;;13.90;5.18;;;;;;;;;;5050448;28;20086;-68
2022/06/13 00:06:48;;;;;;;16.67;5.45;;;;;;;;;;5033001;28;20124;-68
2022/06/13 00:09:14;;;;;;;15.52;6.28;;;;;;;;;;5051100;28;20048;-69
2022/06/13 00:11:40;;;;;;;14.80;5.82;;;;;;;;;;5032845;28;20077;-68
2022/06/13 00:14:07;;;;;;;12.75;6.05;;;;;;;;;;5050956;28;20596;-68
2022/06/13 00:16:33;;;;;;;12.90;5.22;;;;;;;;;;5050350;28;20512;-69
2022/06/13 00:18:59;;;;;;;9.25;5.03;;;;;;;;;;5050154;28;20370;-68
2022/06/13 00:21:27;;;;;;;13.32;5.47;;;;;;;;;;5032421;28;20100;-68
2022/06/13 00:23:54;;;;;;;14.02;5.30;;;;;;;;;;5039420;28;20412;-68
2022/06/13 00:26:21;;;;;;;24.17;6.22;;;;;;;;;;5032682;28;20053;-68
2022/06/13 00:28:48;;;;;;;12.00;5.40;;;;;;;;;;5049961;28;20067;-68
2022/06/13 00:31:14;;;;;;;18.33;5.63;;;;;;;;;;5050432;28;20056;-68
2022/06/13 00:33:40;;;;;;;10.43;5.28;;;;;;;;;;5031931;28;20076;-68
2022/06/13 00:36:06;;;;;;;15.77;5.78;;;;;;;;;;5032372;28;20493;-68
2022/06/13 00:38:32;;;;;;;13.60;5.40;;;;;;;;;;5037613;28;20492;-68
2022/06/13 00:40:59;;;;;;;13.55;5.38;;;;;;;;;;5034723;28;20051;-68
2022/06/13 00:43:25;;;;;;;19.35;6.05;;;;;;;;;;5069405;28;20108;-68
2022/06/13 00:45:51;;;;;;;12.23;5.50;;;;;;;;;;5069243;28;20070;-68
2022/06/13 00:48:21;;;;;;;18.85;6.10;;;;;;;;;;5068940;28;20048;-68
2022/06/13 00:50:50;;;;;;;14.80;5.80;;;;;;;;;;5069200;28;20050;-68
2022/06/13 00:53:16;;;;;;;11.95;5.55;;;;;;;;;;5069389;28;20204;-68
2022/06/13 00:55:51;;;;;;;14.85;5.88;;;;;;;;;;5069031;28;20102;-68
2022/06/13 00:58:17;;;;;;;17.17;5.95;;;;;;;;;;5051168;28;20282;-68
2022/06/13 01:00:46;;;;;;;15.55;5.47;;;;;;;;;;5050942;28;20044;-68
2022/06/13 01:03:12;;;;;;;;;;;;;;;;;;5051058;28;20043;-69
2022/06/13 01:05:41;;;;;;;12.63;5.95;;;;;;;;;;5050703;28;20368;-69
2022/06/13 01:08:08;;;;;;;14.15;6.07;;;;;;;;;;5068713;28;20489;-68
2022/06/13 01:13:21;;;;;;;15.70;6.43;;;;;;;;;;5068905;28;20056;-69
2022/06/13 01:15:50;;;;;;;16.42;7.03;;;;;;;;;;5050369;28;20041;-68
2022/06/13 01:18:22;;;;;;;17.40;6.63;;;;;;;;;;5068279;28;20150;-68
2022/06/13 01:21:05;;;;;;;13.80;5.85;;;;;;;;;;5050578;28;20047;-68
2022/06/13 01:23:41;;;;;;;13.93;5.32;;;;;;;;;;5069042;28;20451;-68
2022/06/13 01:26:25;;;;;;;9.57;5.05;;;;;;;;;;5050901;28;20101;-68
2022/06/13 01:29:07;;;;;;;27.05;8.55;;;;;;;;;;5068629;28;20060;-68
2022/06/13 01:31:33;;;;;;;13.88;6.28;;;;;;;;;;5033385;28;20052;-68
2022/06/13 01:34:11;;;;;;;20.15;6.18;;;;;;;;;;5068962;28;20073;-68
2022/06/13 01:36:40;;;;;;;12.98;6.28;;;;;;;;;;5068503;28;20469;-68
2022/06/13 01:39:25;;;;;;;17.52;6.40;;;;;;;;;;5034332;28;20420;-68
2022/06/13 01:41:57;;;;;;;17.08;6.15;;;;;;;;;;5050726;28;20131;-68
2022/06/13 01:44:23;;;;;;;16.35;5.82;;;;;;;;;;5050520;28;20045;-67
2022/06/13 01:47:08;;;;;;;19.75;6.60;;;;;;;;;;5068117;28;20040;-68
2022/06/13 01:49:41;;;;;;;16.42;6.82;;;;;;;;;;5050130;28;20045;-68
2022/06/13 01:52:13;;;;;;;14.05;6.78;;;;;;;;;;5050679;28;20119;-67
2022/06/13 01:54:39;;;;;;;16.58;7.07;;;;;;;;;;5050816;28;20549;-68
2022/06/13 01:57:05;;;;;;;16.20;6.50;;;;;;;;;;5050883;28;20120;-68
2022/06/13 01:59:41;;;;;;;18.67;6.88;;;;;;;;;;5050219;28;20546;-68
2022/06/13 02:02:11;;;;;;;16.27;6.97;;;;;;;;;;5050139;28;20131;-68
2022/06/13 02:04:45;;;;;;;19.85;6.60;;;;;;;;;;5068300;28;20043;-68
2022/06/13 02:07:12;;;;;;;15.52;6.50;;;;;;;;;;5050759;28;20056;-68
2022/06/13 02:09:41;;;;;;;17.20;6.72;;;;;;;;;;5050394;28;20619;-69
2022/06/13 02:12:07;;;;;;;15.95;6.45;;;;;;;;;;5037850;28;20041;-68
2022/06/13 02:14:36;;;;;;;15.20;6.82;;;;;;;;;;5037053;28;20071;-68
2022/06/13 02:17:01;;;;;;;17.55;7.88;;;;;;;;;;5062113;28;20048;-68
2022/06/13 02:19:31;;;;;;;18.80;8.13;;;;;;;;;;5068038;28;20049;-68
2022/06/13 02:22:05;;;;;;;17.77;8.07;;;;;;;;;;5062511;28;20095;-68
2022/06/13 02:24:36;;;;;;;17.38;7.95;;;;;;;;;;5033707;28;20053;-68
2022/06/13 02:27:03;;;;;;;16.13;7.90;;;;;;;;;;5051946;28;20056;-68
2022/06/13 02:29:33;;;;;;;16.08;7.78;;;;;;;;;;5070722;28;20143;-68
2022/06/13 02:32:02;;;;;;;13.80;7.53;;;;;;;;;;5037530;28;20501;-68
2022/06/13 02:34:32;;;;;;;18.10;8.32;;;;;;;;;;5053681;28;20052;-68
2022/06/13 02:37:09;;;;;;;13.48;7.50;;;;;;;;;;5071949;28;20040;-68
2022/06/13 02:39:45;;;;;;;15.20;7.88;;;;;;;;;;5037163;28;20080;-68
2022/06/13 02:42:15;;;;;;;17.83;8.85;;;;;;;;;;5071780;28;20052;-68
2022/06/13 02:44:48;;;;;;;16.38;8.35;;;;;;;;;;5071261;28;20488;-68
2022/06/13 02:47:20;;;;;;;17.25;8.40;;;;;;;;;;5053637;28;20550;-68
2022/06/13 02:49:49;;;;;;;16.55;8.15;;;;;;;;;;5053300;28;20417;-67
2022/06/13 02:52:21;;;;;;;17.35;8.45;;;;;;;;;;5059070;28;20072;-68
2022/06/13 02:54:50;;;;;;;20.75;8.90;;;;;;;;;;5034081;28;20052;-68
2022/06/13 02:57:27;;;;;;;16.08;7.97;;;;;;;;;;5052403;28;20074;-69
2022/06/13 02:59:53;;;;;;;15.35;7.60;;;;;;;;;;5034029;28;20045;-68
2022/06/13 03:02:25;;;;;;;21.75;9.30;;;;;;;;;;5052282;28;20045;-68
2022/06/13 03:04:58;;;;;;;23.20;8.85;;;;;;;;;;5052241;28;20041;-68
2022/06/13 03:07:28;;;;;;;20.10;8.98;;;;;;;;;;5034425;28;20075;-72
2022/06/13 03:09:54;;;;;;;21.15;9.20;;;;;;;;;;5034663;28;20052;-67
2022/06/13 03:12:31;;;;;;;23.38;8.50;;;;;;;;;;5051926;28;20045;-68
2022/06/13 03:15:21;;;;;;;19.97;8.43;;;;;;;;;;5034155;28;20082;-68
2022/06/13 03:18:00;;;;;;;15.43;8.82;;;;;;;;;;5052297;28;20501;-68
2022/06/13 03:20:49;;;;;;;18.15;8.20;;;;;;;;;;5052811;28;20501;-68
2022/06/13 03:23:20;;;;;;;17.00;8.50;;;;;;;;;;5071113;28;20080;-68
2022/06/13 03:26:06;;;;;;;19.42;8.50;;;;;;;;;;5052770;28;20059;-68
2022/06/13 03:28:40;;;;;;;17.83;8.48;;;;;;;;;;5051505;28;20087;-69
2022/06/13 03:31:19;;;;;;;19.05;8.77;;;;;;;;;;5053347;28;20052;-69
2022/06/13 03:33:47;;;;;;;16.88;8.23;;;;;;;;;;5070504;28;20047;-68
2022/06/13 03:36:13;;;;;;;19.92;8.55;;;;;;;;;;5052873;28;20097;-69
2022/06/13 03:38:41;;;;;;;18.70;8.32;;;;;;;;;;5051857;28;20056;-68
2022/06/13 03:41:07;;;;;;;17.55;8.00;;;;;;;;;;5052913;28;20098;-69
2022/06/13 03:43:46;;;;;;;18.90;7.95;;;;;;;;;;5051994;28;20052;-68
2022/06/13 03:46:14;;;;;;;20.73;8.52;;;;;;;;;;5070765;28;20047;-69
2022/06/13 03:48:47;;;;;;;18.92;8.25;;;;;;;;;;5052297;28;20369;-69
2022/06/13 03:51:19;;;;;;;21.05;8.75;;;;;;;;;;5052513;28;20092;-69
2022/06/13 03:53:48;;;;;;;19.73;8.30;;;;;;;;;;5052588;28;20052;-68
2022/06/13 03:56:20;;;;;;;17.55;8.57;;;;;;;;;;5052148;28;20040;-69
2022/06/13 03:58:50;;;;;;;20.52;9.00;;;;;;;;;;5039999;28;20180;-69
2022/06/13 04:01:18;;;;;;;19.98;7.97;;;;;;;;;;5070392;28;20040;-69
2022/06/13 04:03:44;;;;;;;16.97;8.63;;;;;;;;;;5051805;28;20044;-69
2022/06/13 04:06:31;;;;;;;22.42;8.77;;;;;;;;;;5052302;28;20287;-68
2022/06/13 04:08:57;;;;;;;29.10;11.25;;;;;;;;;;5059746;28;20155;-68
2022/06/13 04:11:39;;;;;;;20.23;8.38;;;;;;;;;;5069595;28;20090;-69
2022/06/13 04:14:28;;;;;;;36.15;11.50;;;;;;;;;;5052516;28;20045;-69
2022/06/13 04:16:54;;;;;;;21.73;9.52;;;;;;;;;;5052046;28;20060;-68
2022/06/13 04:19:26;;;;;;;16.55;8.27;;;;;;;;;;5070012;28;20028;-69
2022/06/13 04:21:58;;;;;;;22.00;9.23;;;;;;;;;;5069901;28;20141;-69
2022/06/13 04:24:34;;;;;;;20.00;9.25;;;;;;;;;;5069809;28;20047;-69
2022/06/13 04:27:06;;;;;;;20.23;9.98;;;;;;;;;;5069403;28;20068;-69
2022/06/13 04:29:38;;;;;;;18.38;9.57;;;;;;;;;;5069248;28;20064;-69
2022/06/13 04:32:07;;;;;;;17.58;9.02;;;;;;;;;;5069489;28;20367;-69
2022/06/13 04:34:36;;;;;;;24.95;9.25;;;;;;;;;;5051423;28;20052;-69
2022/06/13 04:37:03;;;;;;;24.02;9.50;;;;;;;;;;5052247;28;20489;-69
2022/06/13 04:39:30;;;;;;;20.08;8.88;;;;;;;;;;5051025;28;20044;-69
2022/06/13 04:41:57;;;;;;;24.75;9.98;;;;;;;;;;5051750;28;20048;-69
2022/06/13 04:44:26;;;;;;;21.08;9.60;;;;;;;;;;5069544;28;20123;-68
2022/06/13 04:46:53;;;;;;;21.98;9.50;;;;;;;;;;5051465;28;20458;-68
2022/06/13 04:49:28;;;;;;;20.10;10.27;;;;;;;;;;5068777;28;20400;-68
2022/06/13 04:51:55;;;;;;;19.52;9.05;;;;;;;;;;5051581;28;20051;-69
2022/06/13 04:54:36;;;;;;;22.60;9.27;;;;;;;;;;5068755;28;20546;-68
2022/06/13 04:57:02;;;;;;;22.60;9.52;;;;;;;;;;5069226;28;20134;-69
2022/06/13 04:59:30;;;;;;;22.67;10.02;;;;;;;;;;5069091;28;20076;-69
2022/06/13 05:01:57;;;;;;;19.27;9.55;;;;;;;;;;5069360;28;20052;-69
2022/06/13 05:04:29;;;;;;;22.15;10.30;;;;;;;;;;5035089;28;20296;-68
2022/06/13 05:07:00;;;;;;;20.88;9.55;;;;;;;;;;5047063;28;20053;-69
2022/06/13 05:09:35;;;;;;;21.75;10.20;;;;;;;;;;5054828;28;20040;-69
2022/06/13 05:12:19;;;;;;;22.65;10.02;;;;;;;;;;5032038;28;20056;-69
2022/06/13 05:14:48;;;;;;;20.58;9.48;;;;;;;;;;5031609;28;20230;-69
2022/06/13 05:17:26;;;;;;;22.50;9.88;;;;;;;;;;5031778;28;20279;-69
2022/06/13 05:20:05;;;;;;;18.60;9.53;;;;;;;;;;5050768;28;20452;-68
2022/06/13 05:22:49;;;;;;;27.90;9.95;;;;;;;;;;5050790;28;20048;-68
2022/06/13 05:25:34;;;;;;;17.05;8.82;;;;;;;;;;5035513;28;20049;-69
2022/06/13 05:28:00;;;;;;;19.58;9.13;;;;;;;;;;5016212;28;20055;-69
2022/06/13 05:30:27;;;;;;;20.20;8.80;;;;;;;;;;5068551;28;20048;-69
2022/06/13 05:32:54;;;;;;;23.10;9.20;;;;;;;;;;5068723;28;20094;-69
2022/06/13 05:35:22;;;;;;;20.85;8.85;;;;;;;;;;5068767;28;20371;-69
2022/06/13 05:37:48;;;;;;;16.23;7.03;;;;;;;;;;5049825;28;20047;-68
2022/06/13 05:40:16;;;;;;;15.45;7.15;;;;;;;;;;5051057;28;20059;-69
2022/06/13 05:42:42;;;;;;;15.40;7.35;;;;;;;;;;5050518;28;20061;-69
2022/06/13 05:45:11;;;;;;;14.30;6.57;;;;;;;;;;5068787;28;20055;-68
2022/06/13 05:47:37;;;;;;;17.15;6.55;;;;;;;;;;5068442;28;20080;-68
2022/06/13 05:50:03;;;;;;;31.50;8.50;;;;;;;;;;5068834;28;20086;-69
2022/06/13 05:52:29;;;;;;;12.48;5.90;;;;;;;;;;5049779;28;20041;-70
2022/06/13 05:54:55;;;;;;;19.98;6.57;;;;;;;;;;5068734;28;20048;-69
2022/06/13 05:57:21;;;;;;;16.52;5.93;;;;;;;;;;5068623;28;20106;-69
2022/06/13 05:59:47;;;;;;;12.63;4.88;;;;;;;;;;5050120;28;20049;-69
2022/06/13 06:02:13;;;;;;;14.70;4.72;;;;;;;;;;5071948;28;20033;-69
2022/06/13 06:04:39;;;;;;;8.48;4.25;;;;;;;;;;5048065;28;20048;-69
2022/06/13 06:07:05;;;;;;;14.68;4.85;;;;;;;;;;5053832;28;20477;-69
2022/06/13 06:09:31;;;;;;;11.88;4.30;;;;;;;;;;5054052;28;20485;-68
2022/06/13 06:11:57;;;;;;;19.73;7.70;;;;;;;;;;5072662;28;20074;-69
2022/06/13 06:14:23;;;;;;;10.60;4.32;;;;;;;;;;5072422;28;20048;-69
2022/06/13 06:16:49;;;;;;;7.00;3.80;;;;;;;;;;5054329;28;20097;-69
2022/06/13 06:19:15;;;;;;;11.95;3.90;;;;;;;;;;5054243;28;20489;-69
2022/06/13 06:21:41;;;;;;;12.32;3.85;;;;;;;;;;5053465;28;20044;-68
2022/06/13 06:24:07;;;;;;;9.57;3.72;;;;;;;;;;5054369;28;20447;-68
2022/06/13 06:26:33;;;;;;;10.52;3.90;;;;;;;;;;5071908;28;20492;-69
2022/06/13 06:28:59;;;;;;;11.18;3.83;;;;;;;;;;5071851;28;20066;-68
2022/06/13 06:31:26;;;;;;;9.65;3.83;;;;;;;;;;5071999;28;20044;-69
2022/06/13 06:33:53;;;;;;;12.15;3.83;;;;;;;;;;5053922;28;20057;-68
2022/06/13 06:36:19;;;;;;;12.32;3.80;;;;;;;;;;5053675;28;20106;-68
2022/06/13 06:38:46;;;;;;;10.95;3.40;;;;;;;;;;5071638;28;20102;-68
2022/06/13 06:41:13;;;;;;;10.93;3.55;;;;;;;;;;5071839;28;20056;-69
2022/06/13 06:43:39;;;;;;;10.90;2.72;;;;;;;;;;5071959;28;20044;-69
2022/06/13 06:46:05;;;;;;;8.65;3.13;;;;;;;;;;5053867;28;20446;-68
2022/06/13 06:48:31;;;;;;;6.50;2.67;;;;;;;;;;5053456;28;20052;-68
2022/06/13 06:50:57;;;;;;;13.25;3.35;;;;;;;;;;5053322;28;20045;-68
2022/06/13 06:53:25;;;;;;;6.38;2.30;;;;;;;;;;5072073;28;20059;-68
2022/06/13 07:01:22;;;;;;;9.40;2.95;;;;;;;;;;5053470;28;20053;-68
2022/06/13 07:03:51;;;;;;;8.48;2.20;;;;;;;;;;5071629;28;20044;-69
2022/06/13 07:06:17;;;;;;;5.88;2.33;;;;;;;;;;5070857;28;20032;-69
2022/06/13 07:08:43;;;;;;;5.88;2.30;;;;;;;;;;5052784;28;20045;-67
2022/06/13 07:13:57;;;;;;;10.35;2.95;;;;;;;;;;5070344;28;20496;-68
2022/06/13 07:16:23;;;;;;;6.22;1.65;;;;;;;;;;5053440;28;20048;-68
2022/06/13 07:18:49;;;;;;;8.40;2.22;;;;;;;;;;5070860;28;20041;-69
2022/06/13 07:21:15;;;;;;;6.32;2.20;;;;;;;;;;5052593;28;20064;-69
2022/06/13 07:23:41;;;;;;;4.15;1.50;;;;;;;;;;5052819;28;20119;-69
2022/06/13 07:26:08;;;;;;;13.73;3.47;;;;;;;;;;5071291;28;20054;-69
2022/06/13 07:28:34;;;;;;;7.15;2.40;;;;;;;;;;5052256;28;20147;-67
2022/06/13 07:31:00;;;;;;;15.82;3.47;;;;;;;;;;5070862;28;20120;-69
2022/06/13 07:33:26;;;;;;;6.78;1.90;;;;;;;;;;5052027;28;20127;-68
2022/06/13 07:35:52;;;;;;;6.88;2.35;;;;;;;;;;5070761;28;20048;-69
2022/06/13 07:38:19;;;;;;;10.45;2.55;;;;;;;;;;5071061;28;20040;-70
2022/06/13 07:40:46;;;;;;;14.93;2.55;;;;;;;;;;5052712;28;20140;-69
2022/06/13 07:43:18;;;;;;;8.52;2.40;;;;;;;;;;5070589;28;20052;-69
2022/06/13 07:45:44;;;;;;;8.23;2.10;;;;;;;;;;5028951;28;20061;-69
2022/06/13 07:48:11;;;;;;;5.63;2.10;;;;;;;;;;5043440;28;20051;-69
2022/06/13 07:50:37;;;;;;;4.25;1.50;;;;;;;;;;5059658;28;20128;-70
2022/06/13 07:53:02;;;;;;;2.80;1.38;;;;;;;;;;5060937;28;20108;-69
2022/06/13 07:55:31;;;;;;;5.55;1.52;;;;;;;;;;5041525;28;20450;-69
2022/06/13 07:57:57;;;;;;;3.58;1.50;;;;;;;;;;5043897;28;20041;-70
2022/06/13 08:00:25;;;;;;;5.80;1.73;;;;;;;;;;5042986;28;20051;-70
2022/06/13 08:02:53;;;;;;;4.15;1.40;;;;;;;;;;5043129;28;20052;-70
2022/06/13 08:05:20;;;;;;;4.80;2.00;;;;;;;;;;5057971;28;20043;-69
2022/06/13 08:07:46;;;;;;;8.35;2.15;;;;;;;;;;5041394;28;20288;-69
2022/06/13 08:10:12;;;;;;;12.82;3.05;;;;;;;;;;5042170;28;20048;-67
2022/06/13 08:12:39;;;;;;;5.70;1.58;;;;;;;;;;5042119;28;20049;-69
2022/06/13 08:15:05;;;;;;;2.53;1.40;;;;;;;;;;5041722;28;20045;-68
2022/06/13 08:17:31;;;;;;;6.13;1.73;;;;;;;;;;5058834;28;20390;-68
2022/06/13 08:19:57;;;;;;;4.05;1.60;;;;;;;;;;5042139;28;20045;-69
2022/06/13 08:22:23;;;;;;;5.28;1.60;;;;;;;;;;5061558;28;20040;-69
2022/06/13 08:24:49;;;;;;;4.72;1.70;;;;;;;;;;5052033;28;20127;-69
2022/06/13 08:27:15;;;;;;;4.75;1.85;;;;;;;;;;5052267;28;20040;-69
2022/06/13 08:29:42;;;;;;;4.43;1.55;;;;;;;;;;5048088;28;20519;-69
2022/06/13 08:32:08;;;;;;;6.80;1.90;;;;;;;;;;5049233;28;20289;-69
2022/06/13 08:34:34;;;;;;;4.38;1.63;;;;;;;;;;5049402;28;20037;-68
2022/06/13 08:37:00;;;;;;;3.25;1.60;;;;;;;;;;5048392;28;20504;-68
2022/06/13 08:39:26;;;;;;;4.00;1.73;;;;;;;;;;5048405;28;20045;-69
2022/06/13 08:41:55;;;;;;;6.20;1.73;;;;;;;;;;5048368;28;20096;-70
2022/06/13 08:44:24;;;;;;;4.20;1.60;;;;;;;;;;5048485;28;20497;-69
2022/06/13 08:47:05;;;;;;;3.67;1.40;;;;;;;;;;5047521;28;20041;-68
2022/06/13 08:49:35;;;;;;;5.10;1.73;;;;;;;;;;5042607;28;20403;-68
2022/06/13 08:52:12;;;;;;;7.07;1.95;;;;;;;;;;5049502;28;20049;-69
2022/06/13 08:54:39;;;;;;;11.65;2.88;;;;;;;;;;5049334;28;20083;-69
2022/06/13 08:57:09;;;;;;;7.47;1.42;;;;;;;;;;5031434;28;20041;-69
2022/06/13 08:59:38;;;;;;;3.28;1.33;;;;;;;;;;5048786;28;20099;-68
2022/06/13 09:02:12;;;;;;;7.28;1.65;;;;;;;;;;5047541;28;20080;-70
2022/06/13 09:04:40;;;;;;;3.30;1.15;;;;;;;;;;5049416;28;20059;-67
2022/06/13 09:07:09;;;;;;;4.10;1.45;;;;;;;;;;5041552;28;20124;-68
2022/06/13 09:09:39;;;;;;;4.75;1.50;;;;;;;;;;5038613;28;20045;-68
2022/06/13 09:12:07;;;;;;;5.68;1.45;;;;;;;;;;5039701;28;20378;-68
2022/06/13 09:14:35;;;;;;;6.82;1.70;;;;;;;;;;5038241;28;20056;-68
2022/06/13 09:17:06;;;;;;;6.65;2.00;;;;;;;;;;5038869;28;20042;-68
2022/06/13 09:19:36;;;;;;;4.20;1.77;;;;;;;;;;5037877;28;20417;-69
2022/06/13 09:22:19;;;;;;;10.55;1.60;;;;;;;;;;5041195;28;20053;-69
2022/06/13 09:24:52;;;;;;;3.05;1.02;;;;;;;;;;5040382;28;20052;-69
2022/06/13 09:27:21;;;;;;;4.25;1.50;;;;;;;;;;5035154;28;20068;-69
2022/06/13 09:30:07;;;;;;;4.68;1.15;;;;;;;;;;5039457;28;20061;-69
2022/06/13 09:32:54;;;;;;;3.20;1.05;;;;;;;;;;5034953;28;20045;-68
2022/06/13 09:35:22;;;;;;;6.05;1.33;;;;;;;;;;5022606;28;20045;-68
2022/06/13 09:37:53;;;;;;;3.15;0.95;;;;;;;;;;5038732;28;20473;-69
2022/06/13 09:40:23;;;;;;;6.15;1.00;;;;;;;;;;5012985;28;20056;-69
2022/06/13 09:43:05;;;;;;;9.10;1.77;;;;;;;;;;5048206;28;20044;-69
2022/06/13 09:45:50;;;;;;;4.40;1.30;;;;;;;;;;5046934;28;20370;-69
2022/06/13 09:48:35;;;;;;;4.03;1.00;;;;;;;;;;5047564;28;20060;-69
2022/06/13 09:51:21;;;;;;;29.40;6.47;;;;;;;;;;5044142;28;20037;-70
2022/06/13 09:54:06;;;;;;;6.07;1.52;;;;;;;;;;5037175;28;20049;-69
2022/06/13 09:56:52;;;;;;;5.13;1.10;;;;;;;;;;5038678;28;20091;-69
2022/06/13 09:59:33;;;;;;;5.85;1.08;;;;;;;;;;5025709;28;20106;-67
2022/06/13 10:02:01;;;;;;;3.63;1.23;;;;;;;;;;5039387;28;20048;-68
2022/06/13 10:04:34;;;;;;;7.03;1.95;;;;;;;;;;5031931;28;20443;-69
2022/06/13 10:07:06;;;;;;;3.97;1.10;;;;;;;;;;5031014;28;20073;-69
2022/06/13 10:09:32;;;;;;;7.18;2.13;;;;;;;;;;5028927;28;20053;-69
2022/06/13 10:11:58;;;;;;;4.20;1.00;;;;;;;;;;5028056;28;20072;-68
2022/06/13 10:14:31;;;;;;;2.33;0.80;;;;;;;;;;5027330;28;20064;-69
2022/06/13 10:17:00;;;;;;;4.07;1.17;;;;;;;;;;5027866;28;20041;-69
2022/06/13 10:19:48;;;;;;;6.88;1.55;;;;;;;;;;5029076;28;20383;-69
2022/06/13 10:22:14;;;;;;;7.13;1.20;;;;;;;;;;5048300;28;20401;-68
2022/06/13 10:24:48;;;;;;;4.57;0.90;;;;;;;;;;5048200;28;20045;-69
2022/06/13 10:27:14;;;;;;;7.25;1.58;;;;;;;;;;5048355;28;20440;-69
2022/06/13 10:29:46;;;;;;;7.10;1.33;;;;;;;;;;5046265;28;20049;-69
2022/06/13 10:32:27;;;;;;;5.70;1.40;;;;;;;;;;5048301;28;20106;-69
2022/06/13 10:35:02;;;;;;;6.43;1.10;;;;;;;;;;5048490;28;20063;-69
2022/06/13 10:37:34;;;;;;;16.70;4.28;;;;;;;;;;5046668;28;20049;-69
2022/06/13 10:40:02;;;;;;;3.65;1.17;;;;;;;;;;5048376;28;20132;-69
2022/06/13 10:42:29;;;;;;;14.48;2.45;;;;;;;;;;5047626;28;20045;-69
2022/06/13 10:44:56;;;;;;;7.38;1.30;;;;;;;;;;5046926;28;20059;-69
2022/06/13 10:47:25;;;;;;;4.75;1.13;;;;;;;;;;5048297;28;20083;-69
2022/06/13 10:49:51;;;;;;;5.38;1.40;;;;;;;;;;5034077;28;20053;-68
2022/06/13 10:52:20;;;;;;;6.68;1.20;;;;;;;;;;5050550;28;20044;-69
2022/06/13 10:54:48;;;;;;;9.75;1.88;;;;;;;;;;5051779;28;20090;-70
2022/06/13 10:57:18;;;;;;;5.18;1.00;;;;;;;;;;5049840;28;20127;-69
2022/06/13 10:59:44;;;;;;;4.20;0.90;;;;;;;;;;5015950;28;20509;-70
2022/06/13 11:02:16;;;;;;;6.32;1.13;;;;;;;;;;5031336;28;20049;-68
2022/06/13 11:04:42;;;;;;;5.20;0.90;;;;;;;;;;5031162;28;20057;-69
2022/06/13 11:07:19;;;;;;;8.00;0.98;;;;;;;;;;5030907;28;20217;-69
2022/06/13 11:09:49;;;;;;;3.58;1.00;;;;;;;;;;5030656;28;20053;-69
2022/06/13 11:12:21;;;;;;;4.93;1.35;;;;;;;;;;5044643;28;20048;-70
2022/06/13 11:23:51;;;;;;;6.40;1.20;;;;;;;;;;5049476;28;20053;-68
2022/06/13 11:29:03;;;;;;;5.32;1.10;;;;;;;;;;5039535;28;20056;-69
2022/06/13 11:31:29;;;;;;;4.40;0.90;;;;;;;;;;5041464;28;20053;-68
2022/06/13 11:33:55;;;;;;;7.30;1.58;;;;;;;;;;5031845;28;20512;-69
2022/06/13 11:36:26;;;;;;;4.57;1.20;;;;;;;;;;5031576;28;20485;-68
2022/06/13 11:38:54;;;;;;;2.67;0.93;;;;;;;;;;5031910;28;20072;-68
2022/06/13 11:41:22;;;;;;;4.80;1.02;;;;;;;;;;5031257;28;20061;-68
2022/06/13 11:43:54;;;;;;;10.40;1.67;;;;;;;;;;5030328;28;20053;-69
2022/06/13 11:46:39;;;;;;;7.80;1.88;;;;;;;;;;5031360;28;20056;-68
2022/06/13 11:49:05;;;;;;;5.40;1.40;;;;;;;;;;5031701;28;20041;-68
2022/06/13 11:51:36;;;;;;;6.03;1.30;;;;;;;;;;5031087;28;20087;-68
2022/06/13 11:54:02;;;;;;;9.23;1.40;;;;;;;;;;5038111;28;20052;-68
2022/06/13 11:56:29;;;;;;;8.18;1.60;;;;;;;;;;5030788;28;20371;-68
2022/06/13 11:58:58;;;;;;;6.55;1.40;;;;;;;;;;5030015;28;20482;-68
2022/06/13 12:01:30;;;;;;;5.95;1.40;;;;;;;;;;5031540;28;20041;-68
2022/06/13 12:04:04;;;;;;;6.03;1.33;;;;;;;;;;5013676;28;20045;-68
2022/06/13 12:06:44;;;;;;;6.53;1.40;;;;;;;;;;5049937;28;20040;-68
2022/06/13 12:09:31;;;;;;;5.63;1.23;;;;;;;;;;5049806;28;20045;-68
2022/06/13 12:12:00;;;;;;;7.20;1.40;;;;;;;;;;5049413;28;20375;-68
2022/06/13 12:14:26;;;;;;;;;;;;;;;;;;5048327;28;20063;-69
2022/06/13 12:16:58;;;;;;;7.18;1.05;;;;;;;;;;5048820;28;19921;-69
2022/06/13 12:19:31;;;;;;;3.60;0.82;;;;;;;;;;5048155;28;20077;-68
2022/06/13 12:22:07;;;;;;;18.83;4.20;;;;;;;;;;5047593;28;20091;-67
2022/06/13 12:24:37;;;;;;;4.40;1.00;;;;;;;;;;5033932;28;20064;-68
2022/06/13 12:27:03;;;;;;;2.30;0.73;;;;;;;;;;5030765;28;20045;-67
2022/06/13 12:29:48;;;;;;;4.68;0.90;;;;;;;;;;5029014;28;20060;-68
2022/06/13 12:32:16;;;;;;;4.85;1.48;;;;;;;;;;5029115;28;20053;-69
2022/06/13 12:35:02;;;;;;;3.00;1.00;;;;;;;;;;5029176;28;20057;-69
2022/06/13 12:37:32;;;;;;;4.88;1.65;;;;;;;;;;5028928;28;20046;-68
2022/06/13 12:40:18;;;;;;;4.88;1.10;;;;;;;;;;5042034;28;20092;-68
2022/06/13 12:42:44;;;;;;;5.68;1.15;;;;;;;;;;5049249;28;20460;-68
2022/06/13 12:45:25;;;;;;;5.57;1.40;;;;;;;;;;5048889;28;20120;-68
2022/06/13 12:48:00;;;;;;;5.93;1.42;;;;;;;;;;5049653;28;20120;-69
2022/06/13 12:50:33;;;;;;;7.10;1.58;;;;;;;;;;5047704;28;20052;-68
2022/06/13 12:53:20;;;;;;;5.28;1.67;;;;;;;;;;5048929;28;20041;-69
2022/06/13 12:56:04;;;;;;;6.75;1.10;;;;;;;;;;5028003;28;20971;-69
2022/06/13 12:58:45;;;;;;;6.80;1.23;;;;;;;;;;5047804;28;20547;-68
2022/06/13 13:01:15;;;;;;;7.45;1.83;;;;;;;;;;5049748;28;20055;-68
2022/06/13 13:03:48;;;;;;;7.45;1.50;;;;;;;;;;5047607;28;20044;-67
2022/06/13 13:06:34;;;;;;;8.88;1.88;;;;;;;;;;5048112;28;20139;-67
2022/06/13 13:09:06;;;;;;;6.68;1.60;;;;;;;;;;5048677;28;20140;-69
2022/06/13 13:11:33;;;;;;;5.13;1.48;;;;;;;;;;5048125;28;20041;-68
2022/06/13 13:14:07;;;;;;;12.43;3.55;;;;;;;;;;5049178;28;20467;-68
2022/06/13 13:16:46;;;;;;;7.97;1.83;;;;;;;;;;5048739;28;20497;-68
2022/06/13 13:19:18;;;;;;;10.43;1.90;;;;;;;;;;5047830;28;20075;-68
2022/06/13 13:21:48;;;;;;;9.55;2.40;;;;;;;;;;5048250;28;20032;-68
2022/06/13 13:24:14;;;;;;;5.90;1.50;;;;;;;;;;5049173;28;20044;-68
2022/06/13 13:26:59;;;;;;;6.57;1.67;;;;;;;;;;5040982;28;20049;-68
2022/06/13 13:29:44;;;;;;;4.57;1.55;;;;;;;;;;5047250;28;20064;-69
2022/06/13 13:32:29;;;;;;;7.50;1.63;;;;;;;;;;5048846;28;20131;-68
2022/06/13 13:35:04;;;;;;;5.00;1.23;;;;;;;;;;5047776;28;20045;-68
2022/06/13 13:37:34;;;;;;;6.97;1.65;;;;;;;;;;5048150;28;20472;-69
2022/06/13 13:40:07;;;;;;;6.72;1.23;;;;;;;;;;5048870;28;20053;-69
2022/06/13 13:42:49;;;;;;;6.78;1.48;;;;;;;;;;5048564;28;20408;-70
2022/06/13 13:45:26;;;;;;;4.82;1.13;;;;;;;;;;5049060;28;20037;-69
2022/06/13 13:47:54;;;;;;;6.90;1.73;;;;;;;;;;5030270;28;20038;-69
2022/06/13 13:50:25;;;;;;;10.77;2.92;;;;;;;;;;5030048;28;20053;-68
2022/06/13 13:52:54;;;;;;;5.60;1.25;;;;;;;;;;5028797;28;20060;-69
2022/06/13 13:55:20;;;;;;;;;;;;;;;;;;5029099;28;20049;-68
2022/06/13 13:57:49;;;;;;;6.93;1.30;;;;;;;;;;5029189;28;19924;-69
2022/06/13 14:00:18;;;;;;;10.65;2.13;;;;;;;;;;5028433;28;20060;-68
2022/06/13 14:02:52;;;;;;;6.03;1.10;;;;;;;;;;5027243;28;20065;-69
2022/06/13 14:05:35;;;;;;;4.32;1.38;;;;;;;;;;5027790;28;20050;-69
2022/06/13 14:08:12;;;;;;;6.65;1.35;;;;;;;;;;5028141;28;20056;-69
2022/06/13 14:10:44;;;;;;;6.18;1.55;;;;;;;;;;5029309;28;20038;-69
2022/06/13 14:13:13;;;;;;;5.53;1.30;;;;;;;;;;5034580;28;20053;-69
2022/06/13 14:15:51;;;;;;;5.32;1.50;;;;;;;;;;5041919;28;20058;-70
2022/06/13 14:18:21;;;;;;;11.40;3.05;;;;;;;;;;5030008;28;20191;-69
2022/06/13 14:20:48;;;;;;;5.88;1.33;;;;;;;;;;5047634;28;20041;-69
2022/06/13 14:23:33;;;;;;;5.03;1.33;;;;;;;;;;5051555;28;20449;-69
2022/06/13 14:25:59;;;;;;;9.77;1.83;;;;;;;;;;5051232;28;20045;-69
2022/06/13 14:28:42;;;;;;;3.80;1.10;;;;;;;;;;5060544;28;20128;-69
2022/06/13 14:31:08;;;;;;;7.90;2.30;;;;;;;;;;5072217;28;20057;-69
2022/06/13 14:36:58;;;;;;;7.18;1.95;;;;;;;;;;5071544;28;20052;-69
2022/06/13 14:39:31;;;;;;;6.55;1.30;;;;;;;;;;5054472;28;20087;-69
2022/06/13 14:42:07;;;;;;;27.33;6.78;;;;;;;;;;5071832;28;20051;-69
2022/06/13 14:44:40;;;;;;;4.88;1.58;;;;;;;;;;5071960;28;20048;-69
2022/06/13 14:47:25;;;;;;;8.25;2.05;;;;;;;;;;5053901;28;20040;-68
2022/06/13 14:49:54;;;;;;;9.95;3.08;;;;;;;;;;5071291;28;20047;-69
2022/06/13 14:52:21;;;;;;;8.00;1.60;;;;;;;;;;5071418;28;20507;-68
2022/06/13 14:54:46;;;;;;;5.38;1.50;;;;;;;;;;5071337;28;20055;-68
2022/06/13 14:57:27;;;;;;;6.65;1.60;;;;;;;;;;5071570;28;20044;-68
2022/06/13 15:00:13;;;;;;;9.07;2.30;;;;;;;;;;5041276;28;20395;-68
2022/06/13 15:02:56;;;;;;;4.00;1.02;;;;;;;;;;5019872;28;20097;-69
2022/06/13 15:05:31;;;;;;;6.28;1.40;;;;;;;;;;5071506;28;20094;-68
2022/06/13 15:08:09;;;;;;;5.55;1.30;;;;;;;;;;5053781;28;20090;-69
2022/06/13 15:10:54;;;;;;;10.82;2.33;;;;;;;;;;5071275;28;20127;-69
2022/06/13 15:13:22;;;;;;;5.72;1.35;;;;;;;;;;5038663;28;20499;-69
2022/06/13 15:15:52;;;;;;;3.45;1.27;;;;;;;;;;5051925;28;20409;-68
2022/06/13 15:18:20;;;;;;;3.58;1.20;;;;;;;;;;5033987;28;20056;-68
2022/06/13 15:20:48;;;;;;;4.40;0.97;;;;;;;;;;5033684;28;20089;-69
2022/06/13 15:23:17;;;;;;;8.98;1.20;;;;;;;;;;5052163;28;20824;-69
2022/06/13 15:25:46;;;;;;;7.45;1.50;;;;;;;;;;5033976;28;20497;-68
2022/06/13 15:28:12;;;;;;;;;;;;;;;;;;5017753;28;20132;-68